createdAt,value
2022-08-09T00:01:54.427Z,20.34
2022-08-09T00:04:34.103Z,20.31
2022-08-09T00:07:17.325Z,20.34
2022-08-09T00:09:45.102Z,20.32
2022-08-09T00:12:15.568Z,20.32
2022-08-09T00:14:51.098Z,20.31
2022-08-09T00:18:07.713Z,20.25
2022-08-09T00:20:22.779Z,20.19
2022-08-09T00:22:55.857Z,20.17
2022-08-09T00:25:31.930Z,20.15
2022-08-09T00:28:00.723Z,20.07
2022-08-09T00:30:31.988Z,20.01
2022-08-09T00:33:03.002Z,19.91
2022-08-09T00:35:43.127Z,19.85
2022-08-09T00:38:13.717Z,19.78
2022-08-09T00:40:53.295Z,19.72
2022-08-09T00:44:14.427Z,19.65
2022-08-09T00:46:10.942Z,19.59
2022-08-09T00:48:47.551Z,19.51
2022-08-09T00:51:20.487Z,19.43
2022-08-09T00:53:48.475Z,19.40
2022-08-09T00:56:27.874Z,19.34
2022-08-09T00:58:59.000Z,19.33
2022-08-09T01:01:32.493Z,19.28
2022-08-09T01:04:32.936Z,19.26
2022-08-09T01:07:37.628Z,19.28
2022-08-09T01:10:43.872Z,19.24
2022-08-09T01:14:00.076Z,19.19
2022-08-09T01:16:33.466Z,19.19
2022-08-09T01:19:17.259Z,19.13
2022-08-09T01:22:27.594Z,19.12
2022-08-09T01:25:05.981Z,19.08
2022-08-09T01:27:34.790Z,19.04
2022-08-09T01:30:05.260Z,19.01
2022-08-09T01:32:45.392Z,19.01
2022-08-09T01:35:46.570Z,18.97
2022-08-09T01:38:24.529Z,18.96
2022-08-09T01:41:14.172Z,18.98
2022-08-09T01:43:50.974Z,18.97
2022-08-09T01:46:41.536Z,19.00
2022-08-09T01:49:17.797Z,19.03
2022-08-09T01:52:07.454Z,19.02
2022-08-09T01:54:42.338Z,19.04
2022-08-09T01:57:20.367Z,19.01
2022-08-09T01:59:51.940Z,18.98
2022-08-09T02:02:30.999Z,18.90
2022-08-09T02:05:05.323Z,18.80
2022-08-09T02:08:41.013Z,18.74
2022-08-09T02:10:29.919Z,18.69
2022-08-09T02:13:00.536Z,18.63
2022-08-09T02:15:36.296Z,18.60
2022-08-09T02:18:25.336Z,18.60
2022-08-09T02:20:57.756Z,18.56
2022-08-09T02:23:43.259Z,18.55
2022-08-09T02:26:25.263Z,18.54
2022-08-09T02:29:03.287Z,18.50
2022-08-09T02:31:34.257Z,18.48
2022-08-09T02:34:13.327Z,18.49
2022-08-09T02:36:58.020Z,18.47
2022-08-09T02:39:41.913Z,18.47
2022-08-09T02:42:17.723Z,18.46
2022-08-09T02:44:50.602Z,18.42
2022-08-09T02:47:22.029Z,18.37
2022-08-09T02:50:03.122Z,18.30
2022-08-09T02:52:48.475Z,18.29
2022-08-09T02:55:20.659Z,18.21
2022-08-09T02:58:31.973Z,18.17
2022-08-09T03:00:57.926Z,18.13
2022-08-09T03:04:12.492Z,18.10
2022-08-09T03:06:29.020Z,18.08
2022-08-09T03:08:59.181Z,18.06
2022-08-09T03:12:06.320Z,18.04
2022-08-09T03:14:18.590Z,18.01
2022-08-09T03:16:48.920Z,17.97
2022-08-09T03:19:58.471Z,17.95
2022-08-09T03:22:12.086Z,17.92
2022-08-09T03:24:52.468Z,17.87
2022-08-09T03:27:45.036Z,17.82
2022-08-09T03:30:30.096Z,17.78
2022-08-09T03:33:13.087Z,17.75
2022-08-09T03:36:12.491Z,17.73
2022-08-09T03:38:44.605Z,17.68
2022-08-09T03:41:18.488Z,17.65
2022-08-09T03:44:03.078Z,17.62
2022-08-09T03:46:41.644Z,17.55
2022-08-09T03:49:17.376Z,17.48
2022-08-09T03:51:58.805Z,17.41
2022-08-09T03:54:34.350Z,17.39
2022-08-09T03:57:18.403Z,17.38
2022-08-09T03:59:54.721Z,17.36
2022-08-09T04:02:26.574Z,17.34
2022-08-09T04:05:06.636Z,17.37
2022-08-09T04:07:52.906Z,17.35
2022-08-09T04:10:29.064Z,17.34
2022-08-09T04:12:58.255Z,17.34
2022-08-09T04:15:38.899Z,17.33
2022-08-09T04:18:19.231Z,17.33
2022-08-09T04:20:51.613Z,17.33
2022-08-09T04:23:24.544Z,17.35
2022-08-09T04:25:55.723Z,17.35
2022-08-09T04:28:32.943Z,17.34
2022-08-09T04:31:08.168Z,17.34
2022-08-09T04:33:51.589Z,17.35
2022-08-09T04:36:24.653Z,17.39
2022-08-09T04:38:52.669Z,17.40
2022-08-09T04:41:24.464Z,17.43
2022-08-09T04:44:05.767Z,17.42
2022-08-09T04:46:58.705Z,17.41
2022-08-09T04:49:53.135Z,17.43
2022-08-09T04:52:26.359Z,17.43
2022-08-09T04:55:11.826Z,17.43
2022-08-09T04:57:58.415Z,17.45
2022-08-09T05:00:31.919Z,17.48
2022-08-09T05:03:30.624Z,17.51
2022-08-09T05:06:06.414Z,17.54
2022-08-09T05:08:35.943Z,17.55
2022-08-09T05:11:03.978Z,17.58
2022-08-09T05:13:38.931Z,17.61
2022-08-09T05:16:10.418Z,17.68
2022-08-09T05:18:57.583Z,17.73
2022-08-09T05:21:36.644Z,17.78
2022-08-09T05:24:15.239Z,17.83
2022-08-09T05:26:46.259Z,17.92
2022-08-09T05:29:22.715Z,17.96
2022-08-09T05:32:07.143Z,18.06
2022-08-09T05:34:37.914Z,18.12
2022-08-09T05:37:21.938Z,18.20
2022-08-09T05:39:50.694Z,18.31
2022-08-09T05:42:21.237Z,18.37
2022-08-09T05:44:57.390Z,18.44
2022-08-09T05:47:27.116Z,18.46
2022-08-09T05:50:29.863Z,18.53
2022-08-09T05:52:53.787Z,18.64
2022-08-09T05:55:23.355Z,18.76
2022-08-09T05:57:56.886Z,18.86
2022-08-09T06:00:32.910Z,18.92
2022-08-09T06:03:02.547Z,19.02
2022-08-09T06:05:57.632Z,19.08
2022-08-09T06:08:24.337Z,19.12
2022-08-09T06:10:54.447Z,19.18
2022-08-09T06:13:22.319Z,19.27
2022-08-09T06:15:51.695Z,19.35
2022-08-09T06:18:23.953Z,19.46
2022-08-09T06:20:59.168Z,19.57
2022-08-09T06:23:58.050Z,19.65
2022-08-09T06:26:21.340Z,19.72
2022-08-09T06:28:59.880Z,19.78
2022-08-09T06:31:40.094Z,19.83
2022-08-09T06:34:30.685Z,19.91
2022-08-09T06:36:59.586Z,20.01
2022-08-09T06:39:49.119Z,20.10
2022-08-09T06:42:24.688Z,20.17
2022-08-09T06:44:59.325Z,20.25
2022-08-09T06:47:39.440Z,20.32
2022-08-09T06:50:16.598Z,20.40
2022-08-09T06:52:51.941Z,20.49
2022-08-09T06:55:31.174Z,20.56
2022-08-09T06:58:04.671Z,20.63
2022-08-09T07:00:52.617Z,20.69
2022-08-09T07:03:28.496Z,20.72
2022-08-09T07:06:03.948Z,20.76
2022-08-09T07:08:39.666Z,20.81
2022-08-09T07:11:07.929Z,20.90
2022-08-09T07:13:44.978Z,20.95
2022-08-09T07:16:41.821Z,21.01
2022-08-09T07:19:15.552Z,21.09
2022-08-09T07:21:56.900Z,21.18
2022-08-09T07:24:31.918Z,21.24
2022-08-09T07:27:23.862Z,21.36
2022-08-09T07:29:58.764Z,21.47
2022-08-09T07:32:32.083Z,21.62
2022-08-09T07:35:07.806Z,21.73
2022-08-09T07:37:42.902Z,21.86
2022-08-09T07:40:17.917Z,21.96
2022-08-09T07:42:56.389Z,22.10
2022-08-09T07:45:39.678Z,22.26
2022-08-09T07:48:25.888Z,22.41
2022-08-09T07:51:03.018Z,22.57
2022-08-09T07:54:05.461Z,22.77
2022-08-09T07:56:29.041Z,22.93
2022-08-09T07:59:12.566Z,23.10
2022-08-09T08:01:56.956Z,23.23
2022-08-09T08:04:31.621Z,23.37
2022-08-09T08:07:27.128Z,23.57
2022-08-09T08:10:08.314Z,23.71
2022-08-09T08:12:51.056Z,23.85
2022-08-09T08:15:24.232Z,24.00
2022-08-09T08:17:58.428Z,24.14
2022-08-09T08:20:33.175Z,24.26
2022-08-09T08:23:16.156Z,24.37
2022-08-09T08:25:49.920Z,24.53
2022-08-09T08:28:32.504Z,24.58
2022-08-09T08:31:08.926Z,24.65
2022-08-09T08:33:52.219Z,24.79
2022-08-09T08:36:28.836Z,24.93
2022-08-09T08:39:00.841Z,25.10
2022-08-09T08:41:50.557Z,25.18
2022-08-09T08:44:22.945Z,25.31
2022-08-09T08:47:04.357Z,25.50
2022-08-09T08:49:48.439Z,25.61
2022-08-09T08:52:57.358Z,25.77
2022-08-09T08:55:06.448Z,25.89
2022-08-09T08:57:34.793Z,26.01
2022-08-09T09:00:16.878Z,26.11
2022-08-09T09:02:52.982Z,26.16
2022-08-09T09:05:33.020Z,26.34
2022-08-09T09:08:30.098Z,26.47
2022-08-09T09:11:03.602Z,26.62
2022-08-09T09:13:48.564Z,26.64
2022-08-09T09:16:30.445Z,26.78
2022-08-09T09:19:37.831Z,26.80
2022-08-09T09:22:05.060Z,26.95
2022-08-09T09:24:39.752Z,26.89
2022-08-09T09:27:09.295Z,27.01
2022-08-09T09:30:11.606Z,27.16
2022-08-09T09:32:39.055Z,27.28
2022-08-09T09:35:20.477Z,27.42
2022-08-09T09:37:48.647Z,27.52
2022-08-09T09:40:17.729Z,27.71
2022-08-09T09:42:46.441Z,27.74
2022-08-09T09:45:26.129Z,27.80
2022-08-09T09:47:58.645Z,27.79
2022-08-09T09:50:49.376Z,27.91
2022-08-09T09:53:34.432Z,28.00
2022-08-09T09:56:19.795Z,28.06
2022-08-09T09:58:59.171Z,28.04
2022-08-09T10:01:31.255Z,28.15
2022-08-09T10:04:22.988Z,28.34
2022-08-09T10:07:03.468Z,28.42
2022-08-09T10:09:55.005Z,28.44
2022-08-09T10:12:36.899Z,28.43
2022-08-09T10:15:17.570Z,28.46
2022-08-09T10:17:57.185Z,28.47
2022-08-09T10:20:35.631Z,28.61
2022-08-09T10:23:30.831Z,28.63
2022-08-09T10:26:06.838Z,28.66
2022-08-09T10:28:45.487Z,28.71
2022-08-09T10:34:32.442Z,28.72
2022-08-09T10:37:00.519Z,28.67
2022-08-09T10:39:40.888Z,28.80
2022-08-09T10:42:21.243Z,28.98
2022-08-09T10:45:16.873Z,29.14
2022-08-09T10:48:26.074Z,29.17
2022-08-09T10:51:10.451Z,29.15
2022-08-09T10:54:04.655Z,29.27
2022-08-09T10:56:39.939Z,29.32
2022-08-09T10:59:31.016Z,29.37
2022-08-09T11:03:10.962Z,29.38
2022-08-09T11:05:25.416Z,29.51
2022-08-09T11:08:03.472Z,29.55
2022-08-09T11:10:53.282Z,29.60
2022-08-09T11:13:51.147Z,29.64
2022-08-09T11:16:36.952Z,29.73
2022-08-09T11:19:11.588Z,29.73
2022-08-09T11:22:05.474Z,29.78
2022-08-09T11:25:09.890Z,29.91
2022-08-09T11:28:03.858Z,30.01
2022-08-09T11:30:36.782Z,29.96
2022-08-09T11:33:18.216Z,30.05
2022-08-09T11:36:07.220Z,30.09
2022-08-09T11:38:41.438Z,30.10
2022-08-09T11:41:16.012Z,30.12
2022-08-09T11:43:53.977Z,30.23
2022-08-09T11:46:33.396Z,30.27
2022-08-09T11:49:05.249Z,30.30
2022-08-09T11:53:05.685Z,30.31
2022-08-09T11:55:16.209Z,30.42
2022-08-09T11:58:02.000Z,30.37
2022-08-09T12:00:37.206Z,30.37
2022-08-09T12:03:50.310Z,30.38
2022-08-09T12:06:26.702Z,30.37
2022-08-09T12:09:12.194Z,30.45
2022-08-09T12:12:04.077Z,30.42
2022-08-09T12:14:48.848Z,30.61
2022-08-09T12:17:34.305Z,30.61
2022-08-09T12:20:23.427Z,30.67
2022-08-09T12:22:58.843Z,30.84
2022-08-09T12:25:35.874Z,30.88
2022-08-09T12:28:58.634Z,30.89
2022-08-09T12:31:58.763Z,30.93
2022-08-09T12:34:06.461Z,31.02
2022-08-09T12:36:52.563Z,30.95
2022-08-09T12:39:29.831Z,31.02
2022-08-09T12:42:11.402Z,31.18
2022-08-09T12:44:52.503Z,31.09
2022-08-09T12:47:41.354Z,31.19
2022-08-09T12:50:25.482Z,31.10
2022-08-09T12:53:09.429Z,31.09
2022-08-09T12:56:14.939Z,31.18
2022-08-09T12:58:42.817Z,31.27
2022-08-09T13:01:26.587Z,31.24
2022-08-09T13:03:59.647Z,31.21
2022-08-09T13:06:40.992Z,31.28
2022-08-09T13:09:19.298Z,31.36
2022-08-09T13:12:01.585Z,31.28
2022-08-09T13:14:40.808Z,31.43
2022-08-09T13:17:43.831Z,31.55
2022-08-09T13:20:14.123Z,31.65
2022-08-09T13:23:04.858Z,31.59
2022-08-09T13:25:55.089Z,31.65
2022-08-09T13:28:34.486Z,31.61
2022-08-09T13:32:16.348Z,31.57
2022-08-09T13:34:05.317Z,31.51
2022-08-09T13:36:40.537Z,31.41
2022-08-09T13:41:54.256Z,31.39
2022-08-09T13:42:16.099Z,31.45
2022-08-09T13:44:49.999Z,31.49
2022-08-09T13:47:31.182Z,31.56
2022-08-09T13:50:12.369Z,31.50
2022-08-09T13:52:44.215Z,31.41
2022-08-09T13:55:17.845Z,31.38
2022-08-09T13:57:56.217Z,31.23
2022-08-09T14:00:27.263Z,31.08
2022-08-09T14:03:03.389Z,30.99
2022-08-09T14:06:01.185Z,31.00
2022-08-09T14:08:36.500Z,31.09
2022-08-09T14:11:15.934Z,31.03
2022-08-09T14:14:22.003Z,31.12
2022-08-09T14:16:37.793Z,31.05
2022-08-09T14:19:17.960Z,30.94
2022-08-09T14:21:51.431Z,31.01
2022-08-09T14:24:32.408Z,30.92
2022-08-09T14:27:20.604Z,30.78
2022-08-09T14:30:18.531Z,30.68
2022-08-09T14:32:44.507Z,30.47
2022-08-09T14:35:17.249Z,30.37
2022-08-09T14:38:02.111Z,30.20
2022-08-09T14:41:01.444Z,30.02
2022-08-09T14:43:47.514Z,29.79
2022-08-09T14:46:55.534Z,29.63
2022-08-09T14:49:16.240Z,29.51
2022-08-09T14:51:50.081Z,29.37
2022-08-09T14:54:22.093Z,29.22
2022-08-09T14:56:57.788Z,29.15
2022-08-09T14:59:29.360Z,29.02
2022-08-09T15:02:00.910Z,28.94
2022-08-09T15:04:34.944Z,28.81
2022-08-09T15:07:05.770Z,28.75
2022-08-09T15:10:07.066Z,28.66
2022-08-09T15:12:34.184Z,28.54
2022-08-09T15:15:08.602Z,28.48
2022-08-09T15:17:47.326Z,28.38
2022-08-09T15:21:54.744Z,28.31
2022-08-09T15:24:01.091Z,28.26
2022-08-09T15:25:59.505Z,28.20
2022-08-09T15:28:33.268Z,28.15
2022-08-09T15:31:08.654Z,28.11
2022-08-09T15:34:16.267Z,28.09
2022-08-09T15:36:48.053Z,28.09
2022-08-09T15:39:21.727Z,27.98
2022-08-09T15:41:54.887Z,27.86
2022-08-09T15:44:25.550Z,27.79
2022-08-09T15:46:53.465Z,27.75
2022-08-09T15:49:24.413Z,27.72
2022-08-09T15:52:03.406Z,27.66
2022-08-09T15:54:49.400Z,27.64
2022-08-09T15:57:33.833Z,27.57
2022-08-09T16:00:24.510Z,27.50
2022-08-09T16:02:56.996Z,27.47
2022-08-09T16:05:36.290Z,27.41
2022-08-09T16:08:29.917Z,27.38
2022-08-09T16:11:04.943Z,27.34
2022-08-09T16:14:02.680Z,27.29
2022-08-09T16:16:33.313Z,27.27
2022-08-09T16:19:02.704Z,27.25
2022-08-09T16:21:31.767Z,27.21
2022-08-09T16:24:13.027Z,27.19
2022-08-09T16:26:59.561Z,27.15
2022-08-09T16:29:36.685Z,27.11
2022-08-09T16:32:19.836Z,27.07
2022-08-09T16:34:58.004Z,27.04
2022-08-09T16:37:54.497Z,27.01
2022-08-09T16:40:40.322Z,26.97
2022-08-09T16:43:09.453Z,26.93
2022-08-09T16:45:43.701Z,26.90
2022-08-09T16:48:43.282Z,26.87
2022-08-09T16:51:08.688Z,26.83
2022-08-09T16:54:22.402Z,26.80
2022-08-09T16:56:42.579Z,26.76
2022-08-09T16:59:20.382Z,26.73
2022-08-09T17:01:51.368Z,26.69
2022-08-09T17:04:24.551Z,26.67
2022-08-09T17:08:43.672Z,26.65
2022-08-09T17:09:47.542Z,26.63
2022-08-09T17:12:20.669Z,26.57
2022-08-09T17:14:58.077Z,26.55
2022-08-09T17:17:50.930Z,26.51
2022-08-09T17:20:34.739Z,26.46
2022-08-09T17:23:06.022Z,26.42
2022-08-09T17:25:41.390Z,26.41
2022-08-09T17:28:11.925Z,26.35
2022-08-09T17:30:47.972Z,26.33
2022-08-09T17:33:22.066Z,26.31
2022-08-09T17:35:51.194Z,26.29
2022-08-09T17:38:30.507Z,26.26
2022-08-09T17:41:04.965Z,26.25
2022-08-09T17:43:37.387Z,26.23
2022-08-09T17:46:09.842Z,26.20
2022-08-09T17:48:51.508Z,26.19
2022-08-09T17:51:26.029Z,26.15
2022-08-09T17:53:58.588Z,26.10
2022-08-09T17:56:29.272Z,26.07
2022-08-09T17:59:09.643Z,26.06
2022-08-09T18:02:06.103Z,26.02
2022-08-09T18:04:37.213Z,26.00
2022-08-09T18:07:08.449Z,25.97
2022-08-09T18:09:41.811Z,25.93
2022-08-09T18:12:20.105Z,25.90
2022-08-09T18:14:54.593Z,25.85
2022-08-09T18:17:27.240Z,25.78
2022-08-09T18:21:01.170Z,25.75
2022-08-09T18:23:07.679Z,25.66
2022-08-09T18:25:52.661Z,25.59
2022-08-09T18:30:40.357Z,25.54
2022-08-09T18:31:19.149Z,25.44
2022-08-09T18:34:02.108Z,25.42
2022-08-09T18:36:36.430Z,25.40
2022-08-09T18:39:06.314Z,25.35
2022-08-09T18:41:38.266Z,25.29
2022-08-09T18:44:29.009Z,25.23
2022-08-09T18:47:07.404Z,25.14
2022-08-09T18:49:43.678Z,25.08
2022-08-09T18:52:18.706Z,25.01
2022-08-09T18:54:56.574Z,24.96
2022-08-09T18:57:38.617Z,24.93
2022-08-09T19:00:20.158Z,24.87
2022-08-09T19:02:54.747Z,24.83
2022-08-09T19:05:41.553Z,24.75
2022-08-09T19:08:19.867Z,24.75
2022-08-09T19:10:49.101Z,24.72
2022-08-09T19:13:22.796Z,24.69
2022-08-09T19:16:12.893Z,24.62
2022-08-09T19:18:45.529Z,24.62
2022-08-09T19:21:21.736Z,24.60
2022-08-09T19:24:36.082Z,24.59
2022-08-09T19:26:58.769Z,24.52
2022-08-09T19:29:26.729Z,24.47
2022-08-09T19:32:00.042Z,24.42
2022-08-09T19:34:30.439Z,24.33
2022-08-09T19:37:01.657Z,24.25
2022-08-09T19:40:02.422Z,24.20
2022-08-09T19:42:20.717Z,24.14
2022-08-09T19:44:56.208Z,24.14
2022-08-09T19:47:26.869Z,24.09
2022-08-09T19:50:50.121Z,24.10
2022-08-09T19:52:55.937Z,24.12
2022-08-09T19:55:52.708Z,24.10
2022-08-09T19:58:17.108Z,24.08
2022-08-09T20:01:01.590Z,24.07
2022-08-09T20:04:09.657Z,24.09
2022-08-09T20:06:34.626Z,24.07
2022-08-09T20:09:02.542Z,24.03
2022-08-09T20:11:51.938Z,24.00
2022-08-09T20:14:26.879Z,23.96
2022-08-09T20:16:59.619Z,23.89
2022-08-09T20:19:42.114Z,23.85
2022-08-09T20:22:24.163Z,23.80
2022-08-09T20:25:07.797Z,23.78
2022-08-09T20:27:40.045Z,23.74
2022-08-09T20:30:08.615Z,23.66
2022-08-09T20:32:40.798Z,23.61
2022-08-09T20:35:18.414Z,23.57
2022-08-09T20:38:23.422Z,23.53
2022-08-09T20:40:41.032Z,23.51
2022-08-09T20:43:18.940Z,23.45
2022-08-09T20:45:59.104Z,23.45
2022-08-09T20:48:35.775Z,23.43
2022-08-09T20:51:03.786Z,23.40
2022-08-09T20:53:36.941Z,23.37
2022-08-09T20:56:25.961Z,23.34
2022-08-09T20:58:59.440Z,23.31
2022-08-09T21:01:35.376Z,23.29
2022-08-09T21:05:52.735Z,23.27
2022-08-09T21:07:17.719Z,23.25
2022-08-09T21:09:55.535Z,23.23
2022-08-09T21:15:23.407Z,23.23
2022-08-09T21:18:11.682Z,23.22
2022-08-09T21:20:58.179Z,23.21
2022-08-09T21:23:47.877Z,23.19
2022-08-09T21:26:19.614Z,23.17
2022-08-09T21:28:57.021Z,23.17
2022-08-09T21:31:49.383Z,23.16
2022-08-09T21:34:14.243Z,23.17
2022-08-09T21:36:55.260Z,23.17
2022-08-09T21:39:41.666Z,23.16
2022-08-09T21:42:15.854Z,23.15
2022-08-09T21:44:43.893Z,23.16
2022-08-09T21:47:19.198Z,23.14
2022-08-09T21:49:47.985Z,23.14
2022-08-09T21:52:18.247Z,23.09
2022-08-09T21:54:59.317Z,23.07
2022-08-09T21:57:59.564Z,23.05
2022-08-09T22:00:34.187Z,23.02
2022-08-09T22:03:06.756Z,23.01
2022-08-09T22:05:42.240Z,23.02
2022-08-09T22:08:14.606Z,22.98
2022-08-09T22:11:49.352Z,22.98
2022-08-09T22:13:46.431Z,22.97
2022-08-09T22:16:17.195Z,22.93
2022-08-09T22:18:54.531Z,22.92
2022-08-09T22:21:45.011Z,22.89
2022-08-09T22:24:24.753Z,22.86
2022-08-09T22:26:57.095Z,22.85
2022-08-09T22:29:38.386Z,22.82
2022-08-09T22:32:29.935Z,22.78
2022-08-09T22:35:05.910Z,22.78
2022-08-09T22:37:40.310Z,22.77
2022-08-09T22:40:18.350Z,22.77
2022-08-09T22:42:52.750Z,22.73
2022-08-09T22:48:12.247Z,22.69
2022-08-09T22:48:34.603Z,22.65
2022-08-09T22:51:10.458Z,22.63
2022-08-09T22:54:01.086Z,22.57
2022-08-09T22:56:41.471Z,22.56
2022-08-09T22:59:58.189Z,22.52
2022-08-09T23:02:03.515Z,22.53
2022-08-09T23:04:42.290Z,22.48
2022-08-09T23:08:21.315Z,22.44
2022-08-09T23:10:21.273Z,22.42
2022-08-09T23:12:49.087Z,22.37
2022-08-09T23:15:21.503Z,22.36
2022-08-09T23:17:51.988Z,22.32
2022-08-09T23:20:22.744Z,22.30
2022-08-09T23:22:50.556Z,22.29
2022-08-09T23:25:18.362Z,22.28
2022-08-09T23:28:14.201Z,22.27
2022-08-09T23:30:36.372Z,22.25
2022-08-09T23:33:04.163Z,22.26
2022-08-09T23:35:32.009Z,22.23
2022-08-09T23:38:20.610Z,22.22
2022-08-09T23:40:52.265Z,22.21
2022-08-09T23:43:25.745Z,22.14
2022-08-09T23:45:53.684Z,22.13
2022-08-09T23:48:24.473Z,22.08
2022-08-09T23:50:54.971Z,22.04
2022-08-09T23:53:25.635Z,22.03
2022-08-09T23:56:05.574Z,22.01
2022-08-09T23:58:34.832Z,22.01
